createdAt,value
2017-09-22T00:01:58.504Z,30.30
2017-09-22T00:04:26.158Z,24.73
2017-09-22T00:06:53.798Z,24.33
2017-09-22T00:09:21.520Z,26.37
2017-09-22T00:11:49.101Z,22.20
2017-09-22T00:14:16.711Z,28.90
2017-09-22T00:16:44.330Z,25.00
2017-09-22T00:19:11.909Z,28.23
2017-09-22T00:21:39.520Z,24.57
2017-09-22T00:24:07.095Z,21.50
2017-09-22T00:26:34.712Z,25.87
2017-09-22T00:29:02.298Z,22.53
2017-09-22T00:31:29.876Z,26.33
2017-09-22T00:33:57.483Z,23.40
2017-09-22T00:36:25.359Z,27.73
2017-09-22T00:38:52.990Z,30.10
2017-09-22T00:41:20.576Z,25.57
2017-09-22T00:43:48.168Z,26.37
2017-09-22T00:46:15.785Z,25.57
2017-09-22T00:48:43.668Z,25.47
2017-09-22T00:51:11.280Z,31.43
2017-09-22T00:53:39.206Z,28.90
2017-09-22T00:56:06.818Z,27.93
2017-09-22T00:58:34.432Z,32.57
2017-09-22T01:01:02.039Z,26.13
2017-09-22T01:03:29.663Z,30.23
2017-09-22T01:05:57.239Z,35.30
2017-09-22T01:08:24.814Z,27.23
2017-09-22T01:10:52.425Z,28.53
2017-09-22T01:13:20.002Z,35.50
2017-09-22T01:15:47.614Z,32.53
2017-09-22T01:18:15.207Z,29.17
2017-09-22T01:20:43.084Z,32.47
2017-09-22T01:23:10.687Z,30.33
2017-09-22T01:25:38.375Z,27.97
2017-09-22T01:28:06.000Z,25.80
2017-09-22T01:30:33.579Z,28.37
2017-09-22T01:33:01.197Z,28.67
2017-09-22T01:35:28.838Z,29.23
2017-09-22T01:37:56.424Z,28.53
2017-09-22T01:40:24.057Z,30.37
2017-09-22T01:42:51.635Z,25.40
2017-09-22T01:45:19.213Z,38.93
2017-09-22T01:47:46.819Z,28.93
2017-09-22T01:50:14.397Z,28.03
2017-09-22T01:52:42.012Z,26.23
2017-09-22T01:55:09.601Z,43.43
2017-09-22T01:57:37.190Z,29.53
2017-09-22T02:00:05.084Z,26.77
2017-09-22T02:02:32.664Z,29.30
2017-09-22T02:05:00.286Z,26.00
2017-09-22T02:07:27.871Z,32.40
2017-09-22T02:09:55.460Z,32.70
2017-09-22T02:12:23.107Z,25.57
2017-09-22T02:14:50.688Z,29.63
2017-09-22T02:17:18.302Z,28.67
2017-09-22T02:19:46.180Z,25.93
2017-09-22T02:22:13.752Z,32.57
2017-09-22T02:24:41.369Z,25.70
2017-09-22T02:27:08.953Z,30.50
2017-09-22T02:29:36.568Z,30.67
2017-09-22T02:32:04.147Z,23.40
2017-09-22T02:34:32.059Z,28.23
2017-09-22T02:36:59.670Z,24.00
2017-09-22T02:39:27.248Z,26.53
2017-09-22T02:41:54.870Z,25.77
2017-09-22T02:44:22.472Z,23.13
2017-09-22T02:46:50.055Z,25.70
2017-09-22T02:49:17.899Z,28.47
2017-09-22T02:51:45.506Z,34.10
2017-09-22T02:54:13.129Z,23.47
2017-09-22T02:56:40.734Z,29.10
2017-09-22T02:59:08.309Z,25.17
2017-09-22T03:01:35.916Z,24.20
2017-09-22T03:04:03.528Z,26.53
2017-09-22T03:06:31.141Z,26.83
2017-09-22T03:08:58.717Z,23.50
2017-09-22T03:11:26.293Z,29.63
2017-09-22T03:13:53.905Z,21.37
2017-09-22T03:16:21.491Z,30.63
2017-09-22T03:18:49.108Z,26.50
2017-09-22T03:21:16.694Z,24.70
2017-09-22T03:23:44.330Z,28.47
2017-09-22T03:26:11.956Z,22.57
2017-09-22T03:28:39.532Z,25.10
2017-09-22T03:31:07.162Z,28.40
2017-09-22T03:33:34.748Z,26.37
2017-09-22T03:36:02.324Z,25.13
2017-09-22T03:38:29.935Z,23.40
2017-09-22T03:40:57.527Z,27.00
2017-09-22T03:43:25.174Z,28.13
2017-09-22T03:45:53.056Z,24.67
2017-09-22T03:48:20.871Z,24.27
2017-09-22T03:50:48.523Z,30.20
2017-09-22T03:53:16.122Z,28.17
2017-09-22T03:55:43.749Z,30.73
2017-09-22T03:58:11.346Z,24.07
2017-09-22T04:00:38.938Z,29.67
2017-09-22T04:03:06.562Z,27.60
2017-09-22T04:05:34.139Z,24.80
2017-09-22T04:08:01.755Z,23.90
2017-09-22T04:10:29.346Z,23.80
2017-09-22T04:12:56.935Z,30.33
2017-09-22T04:15:24.559Z,35.07
2017-09-22T04:17:52.139Z,24.37
2017-09-22T04:20:19.769Z,30.43
2017-09-22T04:22:47.346Z,28.23
2017-09-22T04:25:14.927Z,31.93
2017-09-22T04:27:42.587Z,31.30
2017-09-22T04:30:11.096Z,30.07
2017-09-22T04:32:38.764Z,33.27
2017-09-22T04:35:06.346Z,33.93
2017-09-22T04:37:33.928Z,29.30
2017-09-22T04:40:01.541Z,29.07
2017-09-22T04:42:29.133Z,28.83
2017-09-22T04:44:56.711Z,32.57
2017-09-22T04:47:24.404Z,32.23
2017-09-22T04:49:52.012Z,33.33
2017-09-22T04:52:19.618Z,33.63
2017-09-22T04:54:47.226Z,30.83
2017-09-22T04:57:15.090Z,38.43
2017-09-22T04:59:42.705Z,31.87
2017-09-22T05:02:10.288Z,37.07
2017-09-22T05:04:37.871Z,32.10
2017-09-22T05:07:05.469Z,33.73
2017-09-22T05:09:33.402Z,30.90
2017-09-22T05:12:01.023Z,34.80
2017-09-22T05:14:28.611Z,43.30
2017-09-22T05:16:56.199Z,34.93
2017-09-22T05:19:23.842Z,28.40
2017-09-22T05:21:51.439Z,30.70
2017-09-22T05:24:19.050Z,31.83
2017-09-22T05:26:46.630Z,30.87
2017-09-22T05:29:14.217Z,28.13
2017-09-22T05:31:41.824Z,30.67
2017-09-22T05:34:09.404Z,30.63
2017-09-22T05:36:37.020Z,26.53
2017-09-22T05:39:04.644Z,37.70
2017-09-22T05:41:32.238Z,32.17
2017-09-22T05:43:59.858Z,31.20
2017-09-22T05:46:27.458Z,47.17
2017-09-22T05:48:55.074Z,36.23
2017-09-22T05:51:22.657Z,40.93
2017-09-22T05:53:50.243Z,31.53
2017-09-22T05:56:17.857Z,34.03
2017-09-22T05:58:45.457Z,29.10
2017-09-22T06:01:13.087Z,30.00
2017-09-22T06:03:40.760Z,30.30
2017-09-22T06:06:08.344Z,27.27
2017-09-22T06:08:35.970Z,25.03
2017-09-22T06:11:03.546Z,33.80
2017-09-22T06:13:31.173Z,27.63
2017-09-22T06:15:58.761Z,31.13
2017-09-22T06:18:26.335Z,22.63
2017-09-22T06:20:56.514Z,27.57
2017-09-22T06:23:26.251Z,32.87
2017-09-22T06:25:53.930Z,28.50
2017-09-22T06:28:23.604Z,25.50
2017-09-22T06:30:51.712Z,25.40
2017-09-22T06:33:19.378Z,26.47
2017-09-22T06:35:46.962Z,24.37
2017-09-22T06:38:14.595Z,21.97
2017-09-22T06:40:42.187Z,24.30
2017-09-22T06:43:09.774Z,23.73
2017-09-22T06:45:37.927Z,25.67
2017-09-22T06:48:11.133Z,30.93
2017-09-22T06:50:40.308Z,18.60
2017-09-22T06:53:07.896Z,14.97
2017-09-22T06:55:37.044Z,15.83
2017-09-22T06:58:05.068Z,24.80
2017-09-22T07:00:33.926Z,15.30
2017-09-22T07:03:01.876Z,16.57
2017-09-22T07:05:29.515Z,17.00
2017-09-22T07:07:57.403Z,15.63
2017-09-22T07:10:24.984Z,18.13
2017-09-22T07:12:52.941Z,13.90
2017-09-22T07:15:20.522Z,14.80
2017-09-22T07:17:48.467Z,13.93
2017-09-22T07:20:16.048Z,13.90
2017-09-22T07:22:43.636Z,19.97
2017-09-22T07:25:11.260Z,17.13
2017-09-22T07:27:38.841Z,16.87
2017-09-22T07:30:06.459Z,29.97
2017-09-22T07:32:34.032Z,15.07
2017-09-22T07:35:01.616Z,13.73
2017-09-22T07:37:29.216Z,17.00
2017-09-22T07:39:56.804Z,15.47
2017-09-22T07:42:24.429Z,13.20
2017-09-22T07:44:52.014Z,14.90
2017-09-22T07:47:19.586Z,14.10
2017-09-22T07:49:47.188Z,15.53
2017-09-22T07:52:14.772Z,17.17
2017-09-22T07:54:42.395Z,12.53
2017-09-22T07:57:09.977Z,15.43
2017-09-22T07:59:37.551Z,13.13
2017-09-22T08:02:05.162Z,11.37
2017-09-22T08:04:32.730Z,13.77
2017-09-22T08:07:00.366Z,12.83
2017-09-22T08:09:27.953Z,11.70
2017-09-22T08:11:55.543Z,18.40
2017-09-22T08:14:23.143Z,14.83
2017-09-22T08:16:50.861Z,16.97
2017-09-22T08:19:18.483Z,10.57
2017-09-22T08:21:46.278Z,15.10
2017-09-22T08:24:14.011Z,15.37
2017-09-22T08:26:41.614Z,10.93
2017-09-22T08:29:09.199Z,10.03
2017-09-22T08:31:36.812Z,13.10
2017-09-22T08:34:04.424Z,10.57
2017-09-22T08:36:32.000Z,12.70
2017-09-22T08:38:59.615Z,12.37
2017-09-22T08:41:27.183Z,10.40
2017-09-22T08:44:11.235Z,14.60
2017-09-22T08:46:41.074Z,12.33
2017-09-22T08:49:08.787Z,14.33
2017-09-22T08:51:36.663Z,12.60
2017-09-22T08:54:04.244Z,10.97
2017-09-22T08:56:31.870Z,13.10
2017-09-22T08:59:00.525Z,13.07
2017-09-22T09:01:29.032Z,12.57
2017-09-22T09:03:56.607Z,20.07
2017-09-22T09:06:24.803Z,14.90
2017-09-22T09:08:54.856Z,16.80
2017-09-22T09:11:22.449Z,10.70
2017-09-22T09:13:51.001Z,12.23
2017-09-22T09:16:18.718Z,14.10
2017-09-22T09:18:47.005Z,11.27
2017-09-22T09:21:14.973Z,11.73
2017-09-22T09:23:42.565Z,12.23
2017-09-22T09:26:10.182Z,10.43
2017-09-22T09:28:37.754Z,14.80
2017-09-22T09:31:05.319Z,9.90
2017-09-22T09:33:32.933Z,10.17
2017-09-22T09:36:00.517Z,10.13
2017-09-22T09:38:28.140Z,10.23
2017-09-22T09:40:56.068Z,10.20
2017-09-22T09:43:23.648Z,13.10
2017-09-22T09:45:51.248Z,16.43
2017-09-22T09:48:18.823Z,17.43
2017-09-22T09:50:46.438Z,12.93
2017-09-22T09:53:14.008Z,10.60
2017-09-22T09:55:41.723Z,10.20
2017-09-22T09:58:09.375Z,11.97
2017-09-22T10:00:36.947Z,11.00
2017-09-22T10:03:04.560Z,11.30
2017-09-22T10:05:32.131Z,13.20
2017-09-22T10:07:59.994Z,12.93
2017-09-22T10:10:27.588Z,13.40
2017-09-22T10:12:55.488Z,13.73
2017-09-22T10:15:23.454Z,10.17
2017-09-22T10:17:51.032Z,13.63
2017-09-22T10:20:18.631Z,12.37
2017-09-22T10:22:46.245Z,12.03
2017-09-22T10:25:13.831Z,11.10
2017-09-22T10:27:41.447Z,13.43
2017-09-22T10:30:09.027Z,16.03
2017-09-22T10:32:36.631Z,12.80
2017-09-22T10:35:04.227Z,12.90
2017-09-22T10:37:31.856Z,10.80
2017-09-22T10:39:59.477Z,14.10
2017-09-22T10:42:27.061Z,10.37
2017-09-22T10:44:54.631Z,10.43
2017-09-22T10:47:22.382Z,18.93
2017-09-22T10:49:49.992Z,15.97
2017-09-22T10:52:17.641Z,10.83
2017-09-22T10:54:45.222Z,11.20
2017-09-22T10:57:12.828Z,14.10
2017-09-22T10:59:40.444Z,12.23
2017-09-22T11:02:08.037Z,12.93
2017-09-22T11:04:35.648Z,14.53
2017-09-22T11:07:03.564Z,13.40
2017-09-22T11:09:31.150Z,11.13
2017-09-22T11:11:58.763Z,12.90
2017-09-22T11:14:26.337Z,10.27
2017-09-22T11:16:54.315Z,14.17
2017-09-22T11:19:22.123Z,11.47
2017-09-22T11:21:49.733Z,12.57
2017-09-22T11:24:17.636Z,13.80
2017-09-22T11:26:51.479Z,14.97
2017-09-22T11:29:27.240Z,11.33
2017-09-22T11:31:54.292Z,12.57
2017-09-22T11:34:22.048Z,19.83
2017-09-22T11:36:50.165Z,11.30
2017-09-22T11:39:18.251Z,10.80
2017-09-22T11:41:48.093Z,15.73
2017-09-22T11:44:15.840Z,16.43
2017-09-22T11:46:46.142Z,13.40
2017-09-22T11:49:16.254Z,13.90
2017-09-22T11:51:45.540Z,11.30
2017-09-22T11:54:13.417Z,13.60
2017-09-22T11:56:41.370Z,10.80
2017-09-22T11:59:09.832Z,13.20
2017-09-22T12:01:37.492Z,10.30
2017-09-22T12:04:05.163Z,10.47
2017-09-22T12:06:32.783Z,13.83
2017-09-22T12:09:00.355Z,10.00
2017-09-22T12:11:29.794Z,12.33
2017-09-22T12:13:58.067Z,10.03
2017-09-22T12:16:25.997Z,9.60
2017-09-22T12:18:53.643Z,13.50
2017-09-22T12:21:21.266Z,9.80
2017-09-22T12:23:49.376Z,16.33
2017-09-22T12:26:16.996Z,10.27
2017-09-22T12:28:44.575Z,12.30
2017-09-22T12:31:12.192Z,13.40
2017-09-22T12:33:39.776Z,12.07
2017-09-22T12:36:07.692Z,13.90
2017-09-22T12:38:35.308Z,12.03
2017-09-22T12:41:02.922Z,20.13
2017-09-22T12:43:30.783Z,12.00
2017-09-22T12:45:58.581Z,10.30
2017-09-22T12:48:26.160Z,9.83
2017-09-22T12:50:53.764Z,9.97
2017-09-22T12:53:21.645Z,11.30
2017-09-22T12:55:49.265Z,13.30
2017-09-22T12:58:16.848Z,9.80
2017-09-22T13:00:44.444Z,14.13
2017-09-22T13:03:12.056Z,12.77
2017-09-22T13:05:39.640Z,12.07
2017-09-22T13:08:07.259Z,13.13
2017-09-22T13:10:34.849Z,10.20
2017-09-22T13:13:02.437Z,10.40
2017-09-22T13:15:30.087Z,10.60
2017-09-22T13:17:57.668Z,10.57
2017-09-22T13:20:25.627Z,17.80
2017-09-22T13:22:53.204Z,11.53
2017-09-22T13:25:20.802Z,11.60
2017-09-22T13:27:48.422Z,9.50
2017-09-22T13:30:15.998Z,11.53
2017-09-22T13:32:43.652Z,10.43
2017-09-22T13:35:11.259Z,10.83
2017-09-22T13:37:38.848Z,10.27
2017-09-22T13:40:06.457Z,10.80
2017-09-22T13:42:34.040Z,12.90
2017-09-22T13:45:01.952Z,9.63
2017-09-22T13:47:29.527Z,9.63
2017-09-22T13:49:57.255Z,12.20
2017-09-22T13:52:24.876Z,12.00
2017-09-22T13:54:52.465Z,9.60
2017-09-22T13:57:20.087Z,14.10
2017-09-22T13:59:47.700Z,12.70
2017-09-22T14:02:15.596Z,11.50
2017-09-22T14:04:43.213Z,10.93
2017-09-22T14:07:11.636Z,13.00
2017-09-22T14:09:39.292Z,15.33
2017-09-22T14:12:06.877Z,12.83
2017-09-22T14:14:34.444Z,9.30
2017-09-22T14:17:02.060Z,13.70
2017-09-22T14:19:29.651Z,13.83
2017-09-22T14:21:57.288Z,10.40
2017-09-22T14:24:24.876Z,10.03
2017-09-22T14:26:52.444Z,11.70
2017-09-22T14:29:20.052Z,13.63
2017-09-22T14:31:47.664Z,10.93
2017-09-22T14:34:21.383Z,11.13
2017-09-22T14:36:52.285Z,9.53
2017-09-22T14:39:20.010Z,10.10
2017-09-22T14:41:47.584Z,12.03
2017-09-22T14:44:15.325Z,10.00
2017-09-22T14:46:42.935Z,9.47
2017-09-22T14:49:10.517Z,14.57
2017-09-22T14:51:38.180Z,10.83
2017-09-22T14:54:05.752Z,15.20
2017-09-22T14:56:33.331Z,9.60
2017-09-22T14:59:00.939Z,9.60
2017-09-22T15:01:28.514Z,12.93
2017-09-22T15:03:56.123Z,15.73
2017-09-22T15:06:23.687Z,9.63
2017-09-22T15:08:51.503Z,10.17
2017-09-22T15:11:19.098Z,11.43
2017-09-22T15:13:46.966Z,10.43
2017-09-22T15:16:14.600Z,24.13
2017-09-22T15:18:42.788Z,9.67
2017-09-22T15:21:10.370Z,9.80
2017-09-22T15:23:38.305Z,10.60
2017-09-22T15:26:05.901Z,9.43
2017-09-22T15:28:33.518Z,9.53
2017-09-22T15:31:01.117Z,10.17
2017-09-22T15:33:28.693Z,13.07
2017-09-22T15:35:56.295Z,10.90
2017-09-22T15:38:23.874Z,10.27
2017-09-22T15:40:51.740Z,9.80
2017-09-22T15:43:19.720Z,10.87
2017-09-22T15:45:47.335Z,11.43
2017-09-22T15:48:14.899Z,9.20
2017-09-22T15:50:42.491Z,9.53
2017-09-22T15:53:10.089Z,9.87
2017-09-22T15:55:37.668Z,10.90
2017-09-22T15:58:05.590Z,14.20
2017-09-22T16:00:33.174Z,10.40
2017-09-22T16:03:00.767Z,9.97
2017-09-22T16:05:28.371Z,10.20
2017-09-22T16:07:56.170Z,11.30
2017-09-22T16:10:23.808Z,11.67
2017-09-22T16:12:51.404Z,10.43
2017-09-22T16:15:19.335Z,10.30
2017-09-22T16:17:46.939Z,9.60
2017-09-22T16:20:14.525Z,12.73
2017-09-22T16:22:42.192Z,11.03
2017-09-22T16:25:09.773Z,10.00
2017-09-22T16:27:37.352Z,9.90
2017-09-22T16:30:04.952Z,11.77
2017-09-22T16:32:32.527Z,9.60
2017-09-22T16:35:00.144Z,9.60
2017-09-22T16:37:27.736Z,9.90
2017-09-22T16:39:55.325Z,12.83
2017-09-22T16:42:22.924Z,9.77
2017-09-22T16:44:50.508Z,11.27
2017-09-22T16:47:18.153Z,11.90
2017-09-22T16:49:45.726Z,9.80
2017-09-22T16:52:13.567Z,11.20
2017-09-22T16:54:41.429Z,10.23
2017-09-22T16:57:09.011Z,12.47
2017-09-22T16:59:37.021Z,11.40
2017-09-22T17:02:04.604Z,12.70
2017-09-22T17:04:32.182Z,13.07
2017-09-22T17:06:59.806Z,11.43
2017-09-22T17:09:27.389Z,11.20
2017-09-22T17:11:55.004Z,12.40
2017-09-22T17:14:22.614Z,11.83
2017-09-22T17:16:50.193Z,13.50
2017-09-22T17:19:17.943Z,12.03
2017-09-22T17:21:45.558Z,13.80
2017-09-22T17:24:13.600Z,13.20
2017-09-22T17:26:41.419Z,12.80
2017-09-22T17:29:09.033Z,13.53
2017-09-22T17:31:36.632Z,14.00
2017-09-22T17:34:04.234Z,13.70
2017-09-22T17:36:32.114Z,16.00
2017-09-22T17:38:59.692Z,14.13
2017-09-22T17:41:27.284Z,12.23
2017-09-22T17:43:54.888Z,13.83
2017-09-22T17:46:22.510Z,15.73
2017-09-22T17:48:50.124Z,11.13
2017-09-22T17:51:17.701Z,14.80
2017-09-22T17:53:45.273Z,12.50
2017-09-22T17:56:12.886Z,12.37
2017-09-22T17:58:40.479Z,12.27
2017-09-22T18:01:08.447Z,15.50
2017-09-22T18:03:36.047Z,24.30
2017-09-22T18:06:03.630Z,12.87
2017-09-22T18:08:31.244Z,18.83
2017-09-22T18:10:58.833Z,16.73
2017-09-22T18:13:26.456Z,18.07
2017-09-22T18:15:54.312Z,20.07
2017-09-22T18:18:21.505Z,18.83
2017-09-22T18:20:49.110Z,19.23
2017-09-22T18:23:16.696Z,19.33
2017-09-22T18:25:44.664Z,19.83
2017-09-22T18:28:12.240Z,17.33
2017-09-22T18:30:39.828Z,17.30
2017-09-22T18:33:07.444Z,20.73
2017-09-22T18:35:35.030Z,19.80
2017-09-22T18:38:02.611Z,18.60
2017-09-22T18:40:30.335Z,17.67
2017-09-22T18:42:57.916Z,24.47
2017-09-22T18:45:25.500Z,20.33
2017-09-22T18:47:53.127Z,18.83
2017-09-22T18:50:20.716Z,19.23
2017-09-22T18:52:48.297Z,21.67
2017-09-22T18:55:15.915Z,19.97
2017-09-22T18:57:43.772Z,27.73
2017-09-22T19:00:11.347Z,30.13
2017-09-22T19:02:38.962Z,26.43
2017-09-22T19:05:06.572Z,21.77
2017-09-22T19:07:34.196Z,24.67
2017-09-22T19:10:01.784Z,25.23
2017-09-22T19:12:29.374Z,28.53
2017-09-22T19:14:57.004Z,21.57
2017-09-22T19:17:24.603Z,25.47
2017-09-22T19:19:52.227Z,24.13
2017-09-22T19:22:19.860Z,24.63
2017-09-22T19:24:47.458Z,22.37
2017-09-22T19:27:15.066Z,26.70
2017-09-22T19:29:42.688Z,24.83
2017-09-22T19:32:10.317Z,27.70
2017-09-22T19:34:38.215Z,27.03
2017-09-22T19:37:05.792Z,25.93
2017-09-22T19:39:33.396Z,25.90
2017-09-22T19:42:01.258Z,22.20
2017-09-22T19:44:28.953Z,27.00
2017-09-22T19:46:56.543Z,32.13
2017-09-22T19:49:24.167Z,32.37
2017-09-22T19:51:51.769Z,28.90
2017-09-22T19:54:19.610Z,24.10
2017-09-22T19:56:47.235Z,23.63
2017-09-22T19:59:14.819Z,30.67
2017-09-22T20:01:42.404Z,26.53
2017-09-22T20:04:10.261Z,29.67
2017-09-22T20:06:37.844Z,26.53
2017-09-22T20:09:05.479Z,23.23
2017-09-22T20:11:33.347Z,28.27
2017-09-22T20:14:00.936Z,38.63
2017-09-22T20:16:28.560Z,28.23
2017-09-22T20:18:56.138Z,28.60
2017-09-22T20:21:23.786Z,36.70
2017-09-22T20:23:51.667Z,25.97
2017-09-22T20:26:19.298Z,33.73
2017-09-22T20:28:46.934Z,25.60
2017-09-22T20:31:14.535Z,31.30
2017-09-22T20:33:42.326Z,34.80
2017-09-22T20:36:09.910Z,33.17
2017-09-22T20:38:37.489Z,27.17
2017-09-22T20:41:05.209Z,26.87
2017-09-22T20:43:32.899Z,23.30
2017-09-22T20:46:00.525Z,24.33
2017-09-22T20:48:28.394Z,28.00
2017-09-22T20:50:55.967Z,31.07
2017-09-22T20:53:23.585Z,25.80
2017-09-22T20:55:51.168Z,27.30
2017-09-22T20:58:18.800Z,30.53
2017-09-22T21:00:46.385Z,27.90
2017-09-22T21:03:14.082Z,35.90
2017-09-22T21:05:41.692Z,26.10
2017-09-22T21:08:09.398Z,27.63
2017-09-22T21:10:37.391Z,26.03
2017-09-22T21:13:05.115Z,28.93
2017-09-22T21:15:32.709Z,35.17
2017-09-22T21:18:00.328Z,33.40
2017-09-22T21:20:27.916Z,28.37
2017-09-22T21:22:55.595Z,26.87
2017-09-22T21:25:23.189Z,32.03
2017-09-22T21:27:50.778Z,33.40
2017-09-22T21:30:18.396Z,28.57
2017-09-22T21:32:45.986Z,26.53
2017-09-22T21:35:13.615Z,30.83
2017-09-22T21:37:41.199Z,34.70
2017-09-22T21:40:08.783Z,27.63
2017-09-22T21:42:36.405Z,32.60
2017-09-22T21:45:03.991Z,25.03
2017-09-22T21:47:31.608Z,29.23
2017-09-22T21:49:59.201Z,27.33
2017-09-22T21:52:26.827Z,35.83
2017-09-22T21:54:54.443Z,27.23
2017-09-22T21:57:22.248Z,26.93
2017-09-22T21:59:49.951Z,30.33
2017-09-22T22:02:17.531Z,35.00
2017-09-22T22:04:50.633Z,28.90
2017-09-22T22:07:24.060Z,30.47
2017-09-22T22:09:51.688Z,29.83
2017-09-22T22:12:19.279Z,32.07
2017-09-22T22:14:46.857Z,32.40
2017-09-22T22:17:14.634Z,36.10
2017-09-22T22:19:42.215Z,30.10
2017-09-22T22:22:09.899Z,27.87
2017-09-22T22:24:37.488Z,29.50
2017-09-22T22:27:05.076Z,34.87
2017-09-22T22:29:32.683Z,28.63
2017-09-22T22:32:00.268Z,38.23
2017-09-22T22:34:27.913Z,27.00
2017-09-22T22:37:04.344Z,27.70
2017-09-22T22:39:32.057Z,33.50
2017-09-22T22:41:59.668Z,34.80
2017-09-22T22:44:27.281Z,32.33
2017-09-22T22:46:54.886Z,28.77
2017-09-22T22:49:22.462Z,32.40
2017-09-22T22:51:50.088Z,32.20
2017-09-22T22:54:17.665Z,29.03
2017-09-22T22:56:45.257Z,32.67
2017-09-22T22:59:12.880Z,30.93
2017-09-22T23:01:40.460Z,37.07
2017-09-22T23:04:08.098Z,37.80
2017-09-22T23:06:36.353Z,31.50
2017-09-22T23:09:04.044Z,27.63
2017-09-22T23:11:31.679Z,42.07
2017-09-22T23:13:59.264Z,31.87
2017-09-22T23:16:26.884Z,31.23
2017-09-22T23:18:54.791Z,29.10
2017-09-22T23:21:22.375Z,34.10
2017-09-22T23:23:49.984Z,34.57
2017-09-22T23:26:17.566Z,34.10
2017-09-22T23:28:45.448Z,33.77
2017-09-22T23:31:13.032Z,31.50
2017-09-22T23:33:40.872Z,30.53
2017-09-22T23:36:08.478Z,34.53
2017-09-22T23:38:36.064Z,33.60
2017-09-22T23:41:03.684Z,30.43
2017-09-22T23:43:31.280Z,31.27
2017-09-22T23:45:58.944Z,29.63
2017-09-22T23:48:26.649Z,33.60
2017-09-22T23:50:54.512Z,30.83
2017-09-22T23:53:22.139Z,34.73
2017-09-22T23:55:49.709Z,33.50
2017-09-22T23:58:17.300Z,31.40
